KPSN

Palestine Municipal Airport

Palestine, Texas, USA
METAR KPSN 242055Z AUTO 22007KT 10SM OVC070 26/21 A2990 RMK AO2 T02670210
Observed Flight Rules
Sep-24 @ 20:55 UTC (27 minutes ago) Visual Flight Rules
Wind Visibility Clouds
220° at 7 knots 10 miles
  • Overcast at 7,000' AGL
Temperatures Readings
Current 27°C / 81°F
Dewpoint 21°C / 70°F
Humidity 70%
Altimeter 29.9" Hg
Pressure 1013 hPa
Elevation 129
METAR KPSN 242055Z AUTO 22007KT 10SM OVC070 26/21 A2990 RMK AO2 T02670210
Observed Flight Rules
Sep-24 @ 20:55 UTC
(27 minutes ago)
VFR
Wind Visibility
220° at 7 knots 10 miles
Clouds
  • Overcast at 7,000' AGL
Temperature Dewpoint
27°C / 81°F 21°C / 70°F
Humidity Altimeter Pressure
70% 29.9" Hg 1013 hPa